createdAt,value
2019-04-14T00:01:54.498Z,25.82
2019-04-14T00:04:31.353Z,26.62
2019-04-14T00:06:59.151Z,25.92
2019-04-14T00:09:27.310Z,27.07
2019-04-14T00:11:54.787Z,24.65
2019-04-14T00:14:22.853Z,28.32
2019-04-14T00:16:49.632Z,27.48
2019-04-14T00:19:17.433Z,24.82
2019-04-14T00:21:45.362Z,26.33
2019-04-14T00:24:12.334Z,25.40
2019-04-14T00:26:40.213Z,25.15
2019-04-14T00:29:07.008Z,25.70
2019-04-14T00:31:34.919Z,25.72
2019-04-14T00:34:05.662Z,26.10
2019-04-14T00:39:31.967Z,25.37
2019-04-14T00:42:08.605Z,17.67
2019-04-14T00:44:47.352Z,25.60
2019-04-14T00:47:18.053Z,26.80
2019-04-14T00:49:44.768Z,25.27
2019-04-14T00:52:12.456Z,26.33
2019-04-14T00:54:41.403Z,24.95
2019-04-14T00:57:09.343Z,24.12
2019-04-14T00:59:36.142Z,26.25
2019-04-14T01:02:05.695Z,23.90
2019-04-14T01:04:33.468Z,24.37
2019-04-14T01:07:00.526Z,24.98
2019-04-14T01:09:28.343Z,24.52
2019-04-14T01:11:55.348Z,24.87
2019-04-14T01:14:21.958Z,22.77
2019-04-14T01:16:49.491Z,24.37
2019-04-14T01:19:17.637Z,22.75
2019-04-14T01:21:45.665Z,22.98
2019-04-14T01:24:12.616Z,23.55
2019-04-14T01:26:42.749Z,23.92
2019-04-14T01:29:10.149Z,22.05
2019-04-14T01:31:40.551Z,21.27
2019-04-14T01:34:08.685Z,22.07
2019-04-14T01:36:36.653Z,23.10
2019-04-14T01:39:05.077Z,23.22
2019-04-14T01:41:34.712Z,23.52
2019-04-14T01:44:02.509Z,23.10
2019-04-14T01:46:32.760Z,21.90
2019-04-14T01:48:59.137Z,22.48
2019-04-14T01:51:39.941Z,23.85
2019-04-14T01:54:34.515Z,22.62
2019-04-14T01:57:20.107Z,22.70
2019-04-14T01:59:48.169Z,23.00
2019-04-14T02:02:18.788Z,21.75
2019-04-14T02:04:46.396Z,21.52
2019-04-14T02:07:14.478Z,20.23
2019-04-14T02:09:42.502Z,21.55
2019-04-14T02:12:10.579Z,22.85
2019-04-14T02:14:38.765Z,23.22
2019-04-14T02:17:07.624Z,22.45
2019-04-14T02:19:39.293Z,20.90
2019-04-14T02:22:07.345Z,21.77
2019-04-14T02:24:35.250Z,22.25
2019-04-14T02:27:07.631Z,22.60
2019-04-14T02:29:36.116Z,21.55
2019-04-14T02:32:32.837Z,20.60
2019-04-14T02:35:08.565Z,20.80
2019-04-14T02:37:26.695Z,21.52
2019-04-14T02:44:55.356Z,22.52
2019-04-14T02:49:50.755Z,20.90
2019-04-14T02:52:20.493Z,22.80
2019-04-14T02:57:30.928Z,22.70
2019-04-14T03:02:23.208Z,23.02
2019-04-14T03:04:45.482Z,23.05
2019-04-14T03:07:18.095Z,22.67
2019-04-14T03:09:42.190Z,22.22
2019-04-14T03:12:09.672Z,22.80
2019-04-14T03:14:40.170Z,24.12
2019-04-14T03:23:08.593Z,21.73
2019-04-14T03:25:15.245Z,22.58
2019-04-14T03:27:59.183Z,22.77
2019-04-14T03:50:28.878Z,23.73
2019-04-14T03:55:16.283Z,24.92
2019-04-14T03:57:30.041Z,25.23
2019-04-14T03:59:58.482Z,24.80
2019-04-14T04:02:27.208Z,26.75
2019-04-14T04:04:53.802Z,26.45
2019-04-14T04:07:21.415Z,25.60
2019-04-14T04:12:44.365Z,25.48
2019-04-14T04:15:11.197Z,26.73
2019-04-14T04:17:45.186Z,26.37
2019-04-14T04:20:21.901Z,26.37
2019-04-14T04:23:07.413Z,25.92
2019-04-14T04:25:44.621Z,28.12
2019-04-14T04:28:32.012Z,27.20
2019-04-14T04:31:22.627Z,28.10
2019-04-14T04:33:56.920Z,27.02
2019-04-14T04:36:35.626Z,28.15
2019-04-14T04:39:17.095Z,27.40
2019-04-14T04:41:44.981Z,26.05
2019-04-14T04:44:11.737Z,25.43
2019-04-14T04:46:39.510Z,28.80
2019-04-14T04:49:12.556Z,29.32
2019-04-14T04:51:35.704Z,29.05
2019-04-14T04:54:03.798Z,27.25
2019-04-14T04:56:31.842Z,28.40
2019-04-14T04:58:58.992Z,29.00
2019-04-14T05:01:25.763Z,27.30
2019-04-14T05:03:53.313Z,26.95
2019-04-14T05:07:12.260Z,25.48
2019-04-14T05:10:08.925Z,25.75
2019-04-14T05:12:43.500Z,25.97
2019-04-14T05:15:36.125Z,25.43
2019-04-14T05:18:02.923Z,24.07
2019-04-14T05:20:29.624Z,24.70
2019-04-14T05:22:57.246Z,23.75
2019-04-14T05:25:25.345Z,23.95
2019-04-14T05:27:53.703Z,21.50
2019-04-14T05:30:21.772Z,21.68
2019-04-14T05:32:48.649Z,22.98
2019-04-14T05:35:16.204Z,21.07
2019-04-14T05:38:03.841Z,21.37
2019-04-14T05:40:32.156Z,19.40
2019-04-14T05:43:00.172Z,19.20
2019-04-14T05:45:27.046Z,17.50
2019-04-14T05:47:54.351Z,19.62
2019-04-14T05:50:21.221Z,18.32
2019-04-14T05:52:47.953Z,17.07
2019-04-14T05:55:15.568Z,17.37
2019-04-14T05:57:43.784Z,17.20
2019-04-14T06:00:14.582Z,15.70
2019-04-14T06:05:10.026Z,14.43
2019-04-14T06:07:37.708Z,14.05
2019-04-14T06:10:05.304Z,15.18
2019-04-14T06:12:31.971Z,15.95
2019-04-14T06:14:58.671Z,14.55
2019-04-14T06:17:25.447Z,14.75
2019-04-14T06:19:52.060Z,14.58
2019-04-14T06:22:18.745Z,14.93
2019-04-14T06:24:45.452Z,14.18
2019-04-14T06:27:12.224Z,15.23
2019-04-14T06:29:39.007Z,13.30
2019-04-14T06:32:40.442Z,14.05
2019-04-14T06:35:39.253Z,13.50
2019-04-14T06:38:09.020Z,12.95
2019-04-14T06:40:46.103Z,12.73
2019-04-14T06:43:12.785Z,13.00
2019-04-14T06:45:39.568Z,11.90
2019-04-14T06:48:06.336Z,11.78
2019-04-14T06:50:33.137Z,12.35
2019-04-14T06:52:59.745Z,12.88
2019-04-14T06:55:26.345Z,12.33
2019-04-14T06:57:53.177Z,12.00
2019-04-14T07:00:19.966Z,11.80
2019-04-14T07:02:48.086Z,12.93
2019-04-14T07:05:14.945Z,11.83
2019-04-14T07:07:41.711Z,12.33
2019-04-14T07:10:35.677Z,13.18
2019-04-14T07:13:02.453Z,12.40
2019-04-14T07:15:29.250Z,11.90
2019-04-14T07:17:55.810Z,12.58
2019-04-14T07:20:42.264Z,12.68
2019-04-14T07:23:09.151Z,12.75
2019-04-14T07:25:35.787Z,13.20
2019-04-14T07:28:02.598Z,13.83
2019-04-14T07:30:48.932Z,14.43
2019-04-14T07:33:31.509Z,13.43
2019-04-14T07:36:16.446Z,13.80
2019-04-14T07:39:18.025Z,12.82
2019-04-14T07:41:50.939Z,13.15
2019-04-14T07:44:49.238Z,14.55
2019-04-14T07:47:25.170Z,13.90
2019-04-14T07:50:17.378Z,13.48
2019-04-14T07:53:06.773Z,14.50
2019-04-14T07:55:40.003Z,14.03
2019-04-14T07:58:13.985Z,13.68
2019-04-14T08:00:47.616Z,14.28
2019-04-14T08:03:24.265Z,13.60
2019-04-14T08:05:50.986Z,13.85
2019-04-14T08:08:17.687Z,14.53
2019-04-14T08:10:44.459Z,15.63
2019-04-14T08:13:11.222Z,14.75
2019-04-14T08:15:39.237Z,15.35
2019-04-14T08:18:06.007Z,14.90
2019-04-14T08:20:33.697Z,15.65
2019-04-14T08:23:00.370Z,15.88
2019-04-14T08:25:27.180Z,14.85
2019-04-14T08:27:53.947Z,15.20
2019-04-14T08:30:20.670Z,15.72
2019-04-14T08:32:47.751Z,15.18
2019-04-14T08:35:14.736Z,16.23
2019-04-14T08:37:41.407Z,15.15
2019-04-14T08:40:08.599Z,14.30
2019-04-14T08:42:41.538Z,15.58
2019-04-14T08:45:31.627Z,15.18
2019-04-14T08:48:09.656Z,14.43
2019-04-14T08:50:54.585Z,16.00
2019-04-14T08:53:25.254Z,15.00
2019-04-14T08:56:05.641Z,15.28
2019-04-14T09:01:48.848Z,14.95
2019-04-14T09:04:53.094Z,15.05
2019-04-14T09:07:32.243Z,16.55
2019-04-14T09:10:03.778Z,16.52
2019-04-14T09:12:33.262Z,16.60
2019-04-14T09:15:00.030Z,15.70
2019-04-14T09:17:28.769Z,15.63
2019-04-14T09:19:55.509Z,15.55
2019-04-14T09:22:22.178Z,17.67
2019-04-14T09:24:48.857Z,16.30
2019-04-14T09:27:15.548Z,16.37
2019-04-14T09:29:42.124Z,16.80
2019-04-14T09:32:10.086Z,16.10
2019-04-14T09:34:36.883Z,22.52
2019-04-14T09:37:03.718Z,17.25
2019-04-14T09:39:30.291Z,16.67
2019-04-14T09:41:57.371Z,17.92
2019-04-14T09:44:24.188Z,17.95
2019-04-14T09:46:50.864Z,17.57
2019-04-14T09:49:17.640Z,17.62
2019-04-14T09:51:44.422Z,18.27
2019-04-14T09:54:11.221Z,18.30
2019-04-14T09:56:37.816Z,17.35
2019-04-14T09:59:04.589Z,18.52
2019-04-14T10:01:31.375Z,17.73
2019-04-14T10:03:58.041Z,18.02
2019-04-14T10:06:24.755Z,16.12
2019-04-14T10:08:51.637Z,16.80
2019-04-14T10:11:18.532Z,16.77
2019-04-14T10:13:45.189Z,16.95
2019-04-14T10:16:11.883Z,18.23
2019-04-14T10:18:38.452Z,16.02
2019-04-14T10:21:16.694Z,16.82
2019-04-14T10:23:33.622Z,16.05
2019-04-14T10:26:00.329Z,16.35
2019-04-14T10:28:27.127Z,16.82
2019-04-14T10:30:53.798Z,16.82
2019-04-14T10:33:20.395Z,15.72
2019-04-14T10:35:47.067Z,15.72
2019-04-14T10:38:13.766Z,16.30
2019-04-14T10:40:40.431Z,16.60
2019-04-14T10:43:07.119Z,16.30
2019-04-14T10:45:33.798Z,15.53
2019-04-14T10:48:01.434Z,15.45
2019-04-14T10:50:31.109Z,15.90
2019-04-14T10:52:56.725Z,15.72
2019-04-14T10:55:23.489Z,15.23
2019-04-14T10:57:50.172Z,16.27
2019-04-14T11:00:17.801Z,15.83
2019-04-14T11:02:44.436Z,16.35
2019-04-14T11:05:11.226Z,15.90
2019-04-14T11:07:37.968Z,15.78
2019-04-14T11:10:05.264Z,15.70
2019-04-14T11:12:32.236Z,16.17
2019-04-14T11:14:58.832Z,16.05
2019-04-14T11:17:25.404Z,16.40
2019-04-14T11:19:52.188Z,15.60
2019-04-14T11:22:19.084Z,15.38
2019-04-14T11:24:45.861Z,15.70
2019-04-14T11:27:12.546Z,15.98
2019-04-14T11:29:39.220Z,15.53
2019-04-14T11:32:43.416Z,15.43
2019-04-14T11:35:35.313Z,16.90
2019-04-14T11:38:30.380Z,16.25
2019-04-14T11:40:58.830Z,16.77
2019-04-14T11:43:25.644Z,16.45
2019-04-14T11:45:52.418Z,17.00
2019-04-14T11:48:19.215Z,17.07
2019-04-14T11:50:45.992Z,18.57
2019-04-14T11:53:12.714Z,18.60
2019-04-14T11:55:39.385Z,17.00
2019-04-14T11:58:06.180Z,17.07
2019-04-14T12:01:01.668Z,16.87
2019-04-14T12:03:38.251Z,16.55
2019-04-14T12:06:27.502Z,17.37
2019-04-14T12:09:19.735Z,17.80
2019-04-14T12:11:46.397Z,18.12
2019-04-14T12:14:13.184Z,18.52
2019-04-14T12:16:40.207Z,18.55
2019-04-14T12:19:06.895Z,18.07
2019-04-14T12:21:33.565Z,18.27
2019-04-14T12:24:00.261Z,17.20
2019-04-14T12:26:27.052Z,16.85
2019-04-14T12:28:53.784Z,17.82
2019-04-14T12:31:21.768Z,16.67
2019-04-14T12:33:48.671Z,18.15
2019-04-14T12:36:15.387Z,18.80
2019-04-14T12:38:42.166Z,17.35
2019-04-14T12:41:13.108Z,17.98
2019-04-14T12:44:08.419Z,17.07
2019-04-14T12:46:57.530Z,18.75
2019-04-14T12:49:28.763Z,16.97
2019-04-14T12:52:21.082Z,17.82
2019-04-14T12:54:42.522Z,17.02
2019-04-14T12:57:09.307Z,17.57
2019-04-14T12:59:36.094Z,17.15
2019-04-14T13:02:22.701Z,17.67
2019-04-14T13:04:49.496Z,15.72
2019-04-14T13:07:16.172Z,17.32
2019-04-14T13:09:43.165Z,16.60
2019-04-14T13:12:10.416Z,18.40
2019-04-14T13:14:38.520Z,18.05
2019-04-14T13:17:05.203Z,18.70
2019-04-14T13:19:31.989Z,19.32
2019-04-14T13:21:58.754Z,18.80
2019-04-14T13:24:25.543Z,18.82
2019-04-14T13:26:52.313Z,19.92
2019-04-14T13:29:19.109Z,19.55
2019-04-14T13:31:46.491Z,18.32
2019-04-14T13:34:13.274Z,21.20
2019-04-14T13:36:40.027Z,18.62
2019-04-14T13:39:06.804Z,19.82
2019-04-14T13:41:33.899Z,18.00
2019-04-14T13:44:00.601Z,18.37
2019-04-14T13:46:27.284Z,19.65
2019-04-14T13:48:53.975Z,19.90
2019-04-14T13:51:20.642Z,19.27
2019-04-14T13:53:47.361Z,20.10
2019-04-14T13:56:14.127Z,21.00
2019-04-14T13:58:40.983Z,21.60
2019-04-14T14:01:07.773Z,23.60
2019-04-14T14:03:34.556Z,21.93
2019-04-14T14:06:01.330Z,23.02
2019-04-14T14:08:28.090Z,21.85
2019-04-14T14:10:59.319Z,19.48
2019-04-14T14:13:32.424Z,20.77
2019-04-14T14:19:11.952Z,20.72
2019-04-14T14:21:58.378Z,23.22
2019-04-14T14:24:29.047Z,17.23
2019-04-14T14:29:22.450Z,18.07
2019-04-14T14:31:49.522Z,17.52
2019-04-14T14:34:16.213Z,20.15
2019-04-14T14:36:42.934Z,18.07
2019-04-14T14:39:10.013Z,21.05
2019-04-14T14:41:36.673Z,17.92
2019-04-14T14:44:03.451Z,20.57
2019-04-14T14:46:48.324Z,20.70
2019-04-14T14:49:40.563Z,20.23
2019-04-14T14:52:09.380Z,17.62
2019-04-14T14:54:36.187Z,20.20
2019-04-14T14:57:03.051Z,17.52
2019-04-14T14:59:29.873Z,20.00
2019-04-14T15:01:56.430Z,16.07
2019-04-14T15:04:23.015Z,15.70
2019-04-14T15:06:49.695Z,19.77
2019-04-14T15:09:16.387Z,15.55
2019-04-14T15:11:43.162Z,15.43
2019-04-14T15:14:09.861Z,18.40
2019-04-14T15:16:36.665Z,15.98
2019-04-14T15:19:03.508Z,15.20
2019-04-14T15:21:30.298Z,16.65
2019-04-14T15:23:57.031Z,14.50
2019-04-14T15:26:23.826Z,14.10
2019-04-14T15:28:50.599Z,16.90
2019-04-14T15:31:17.299Z,14.68
2019-04-14T15:33:44.104Z,17.20
2019-04-14T15:36:10.908Z,12.82
2019-04-14T15:38:37.610Z,14.23
2019-04-14T15:41:04.410Z,13.35
2019-04-14T15:43:31.087Z,11.78
2019-04-14T15:45:57.871Z,14.00
2019-04-14T15:48:24.600Z,16.37
2019-04-14T15:50:51.387Z,15.03
2019-04-14T15:53:18.163Z,11.05
2019-04-14T15:55:44.988Z,11.55
2019-04-14T15:58:36.284Z,8.48
2019-04-14T16:01:22.440Z,7.08
2019-04-14T16:03:53.926Z,8.23
2019-04-14T16:06:42.194Z,9.45
2019-04-14T16:09:18.445Z,8.38
2019-04-14T16:12:04.785Z,8.83
2019-04-14T16:14:49.739Z,8.90
2019-04-14T16:17:34.679Z,8.48
2019-04-14T16:20:04.207Z,7.85
2019-04-14T16:22:30.898Z,9.85
2019-04-14T16:24:57.497Z,7.90
2019-04-14T16:27:30.725Z,9.23
2019-04-14T16:30:17.171Z,7.62
2019-04-14T16:32:55.278Z,9.28
2019-04-14T16:35:25.267Z,9.53
2019-04-14T16:37:52.126Z,9.18
2019-04-14T16:40:18.857Z,9.25
2019-04-14T16:42:45.655Z,9.33
2019-04-14T16:45:33.967Z,8.78
2019-04-14T16:48:00.647Z,10.68
2019-04-14T16:50:27.439Z,10.00
2019-04-14T16:53:12.708Z,9.98
2019-04-14T16:55:47.275Z,11.80
2019-04-14T16:58:28.511Z,12.75
2019-04-14T17:01:00.011Z,12.13
2019-04-14T17:03:26.588Z,11.78
2019-04-14T17:05:53.296Z,11.65
2019-04-14T17:08:19.880Z,13.20
2019-04-14T17:10:46.575Z,11.85
2019-04-14T17:13:13.259Z,11.60
2019-04-14T17:15:58.057Z,14.38
2019-04-14T17:18:56.560Z,12.03
2019-04-14T17:21:52.006Z,12.07
2019-04-14T17:24:53.202Z,13.32
2019-04-14T17:27:34.024Z,14.53
2019-04-14T17:33:09.098Z,13.68
2019-04-14T17:35:55.982Z,13.53
2019-04-14T17:38:48.407Z,14.15
2019-04-14T17:41:26.250Z,15.30
2019-04-14T17:43:59.706Z,14.28
2019-04-14T17:46:45.930Z,15.68
2019-04-14T17:49:38.242Z,14.60
2019-04-14T17:52:23.364Z,18.57
2019-04-14T17:55:02.537Z,15.93
2019-04-14T17:57:47.916Z,18.82
2019-04-14T18:00:23.051Z,16.27
2019-04-14T18:03:12.517Z,16.52
2019-04-14T18:05:58.839Z,16.62
2019-04-14T18:08:45.271Z,16.30
2019-04-14T18:11:30.136Z,16.37
2019-04-14T18:14:10.256Z,17.52
2019-04-14T18:16:56.692Z,16.42
2019-04-14T18:19:53.216Z,20.05
2019-04-14T18:22:20.023Z,18.48
2019-04-14T18:24:46.802Z,22.45
2019-04-14T18:27:13.608Z,20.00
2019-04-14T18:29:45.596Z,20.35
2019-04-14T18:32:22.804Z,21.93
2019-04-14T18:35:15.316Z,20.60
2019-04-14T18:37:59.394Z,19.65
2019-04-14T18:40:34.184Z,21.07
2019-04-14T18:43:06.202Z,22.22
2019-04-14T18:45:42.987Z,21.27
2019-04-14T18:48:28.272Z,22.48
2019-04-14T18:51:20.544Z,26.00
2019-04-14T18:54:05.102Z,22.75
2019-04-14T18:56:54.104Z,24.95
2019-04-14T18:59:31.168Z,26.42
2019-04-14T19:01:58.073Z,25.85
2019-04-14T19:04:24.850Z,26.85
2019-04-14T19:06:51.629Z,23.62
2019-04-14T19:09:18.343Z,23.25
2019-04-14T19:12:06.866Z,23.92
2019-04-14T19:14:35.622Z,25.00
2019-04-14T19:17:07.060Z,25.30
2019-04-14T19:19:35.317Z,26.20
2019-04-14T19:22:02.115Z,24.72
2019-04-14T19:24:28.924Z,25.60
2019-04-14T19:26:55.557Z,26.65
2019-04-14T19:29:22.244Z,26.17
2019-04-14T19:31:48.939Z,27.90
2019-04-14T19:34:15.634Z,31.93
2019-04-14T19:36:42.319Z,28.62
2019-04-14T19:39:09.932Z,26.65
2019-04-14T19:41:36.635Z,29.52
2019-04-14T19:44:03.436Z,29.32
2019-04-14T19:46:30.221Z,27.55
2019-04-14T19:48:56.822Z,26.97
2019-04-14T19:51:23.543Z,27.15
2019-04-14T19:53:50.262Z,27.62
2019-04-14T19:56:16.935Z,27.40
2019-04-14T19:58:43.570Z,30.65
2019-04-14T20:01:10.307Z,28.95
2019-04-14T20:03:56.819Z,31.85
2019-04-14T20:06:23.507Z,29.48
2019-04-14T20:08:50.199Z,29.00
2019-04-14T20:11:36.416Z,28.57
2019-04-14T20:14:03.359Z,27.20
2019-04-14T20:16:49.749Z,29.50
2019-04-14T20:19:39.012Z,28.87
2019-04-14T20:22:24.030Z,29.92
2019-04-14T20:25:03.446Z,28.85
2019-04-14T20:27:33.894Z,30.92
2019-04-14T20:30:42.310Z,30.75
2019-04-14T20:33:09.096Z,31.23
2019-04-14T20:35:35.927Z,33.35
2019-04-14T20:38:02.725Z,32.75
2019-04-14T20:40:29.525Z,31.52
2019-04-14T20:42:56.295Z,31.17
2019-04-14T20:45:22.984Z,31.55
2019-04-14T20:47:49.672Z,31.35
2019-04-14T20:50:16.489Z,34.05
2019-04-14T20:52:43.283Z,33.00
2019-04-14T20:55:10.075Z,32.00
2019-04-14T20:57:36.864Z,32.08
2019-04-14T21:00:06.628Z,33.38
2019-04-14T21:02:45.363Z,37.10
2019-04-14T21:05:26.783Z,32.85
2019-04-14T21:08:15.772Z,32.17
2019-04-14T21:10:55.508Z,32.35
2019-04-14T21:13:41.820Z,33.83
2019-04-14T21:16:13.307Z,34.43
2019-04-14T21:18:45.940Z,35.95
2019-04-14T21:21:25.974Z,37.00
2019-04-14T21:24:09.424Z,35.80
2019-04-14T21:26:49.985Z,33.63
2019-04-14T21:29:33.516Z,34.33
2019-04-14T21:32:31.645Z,37.45
2019-04-14T21:35:03.672Z,32.93
2019-04-14T21:37:56.330Z,34.20
2019-04-14T21:40:32.176Z,34.38
2019-04-14T21:42:59.054Z,35.17
2019-04-14T21:45:26.280Z,35.33
2019-04-14T21:47:53.132Z,35.88
2019-04-14T21:50:19.936Z,35.90
2019-04-14T21:52:49.481Z,36.53
2019-04-14T21:55:15.718Z,38.05
2019-04-14T21:58:13.964Z,36.50
2019-04-14T22:01:41.050Z,35.98
2019-04-14T22:04:33.326Z,35.38
2019-04-14T22:07:11.839Z,37.23
2019-04-14T22:09:38.725Z,37.98
2019-04-14T22:12:06.039Z,35.48
2019-04-14T22:14:32.727Z,38.55
2019-04-14T22:16:59.501Z,38.13
2019-04-14T22:19:26.101Z,38.28
2019-04-14T22:21:52.880Z,40.90
2019-04-14T22:24:19.584Z,40.75
2019-04-14T22:26:46.285Z,38.05
2019-04-14T22:29:13.105Z,37.73
2019-04-14T22:31:39.887Z,39.40
2019-04-14T22:34:06.482Z,38.55
2019-04-14T22:36:33.079Z,38.15
2019-04-14T22:38:59.860Z,38.23
2019-04-14T22:41:26.565Z,39.85
2019-04-14T22:43:53.360Z,40.73
2019-04-14T22:46:20.134Z,40.60
2019-04-14T22:48:46.831Z,42.70
2019-04-14T22:51:14.959Z,44.30
2019-04-14T22:53:41.794Z,43.20
2019-04-14T22:56:08.480Z,44.48
2019-04-14T22:58:35.167Z,39.15
2019-04-14T23:01:12.563Z,39.05
2019-04-14T23:03:48.195Z,39.27
2019-04-14T23:06:40.285Z,39.15
2019-04-14T23:09:19.485Z,39.35
2019-04-14T23:12:11.762Z,38.17
2019-04-14T23:14:58.109Z,41.53
2019-04-14T23:17:35.537Z,38.90
2019-04-14T23:20:12.945Z,38.05
2019-04-14T23:22:57.963Z,39.45
2019-04-14T23:25:24.565Z,42.20
2019-04-14T23:27:51.358Z,39.18
2019-04-14T23:30:18.138Z,39.75
2019-04-14T23:32:44.918Z,39.67
2019-04-14T23:35:11.888Z,41.02
2019-04-14T23:37:38.768Z,41.83
2019-04-14T23:40:05.910Z,40.95
2019-04-14T23:42:32.594Z,38.90
2019-04-14T23:44:59.166Z,39.90
2019-04-14T23:47:25.876Z,41.70
2019-04-14T23:49:52.562Z,39.78
2019-04-14T23:52:19.375Z,41.53
2019-04-14T23:54:46.201Z,41.18
2019-04-14T23:57:12.983Z,40.80
2019-04-14T23:59:39.681Z,42.00
